sensor_id;sensor_type;location;lat;lon;timestamp;pressure;altitude;pressure_sealevel;temperature;humidity
61506;BME280;47366;51.916;4.574;2023-10-19T00:02:08;99274.13;;;12.17;100.00
61506;BME280;47366;51.916;4.574;2023-10-19T00:04:33;99272.13;;;12.19;100.00
61506;BME280;47366;51.916;4.574;2023-10-19T00:07:02;99260.56;;;12.17;100.00
61506;BME280;47366;51.916;4.574;2023-10-19T00:09:30;99264.41;;;12.24;100.00
61506;BME280;47366;51.916;4.574;2023-10-19T00:12:01;99266.97;;;12.25;100.00
61506;BME280;47366;51.916;4.574;2023-10-19T00:14:27;99249.81;;;12.25;100.00
61506;BME280;47366;51.916;4.574;2023-10-19T00:16:52;99261.97;;;12.30;100.00
61506;BME280;47366;51.916;4.574;2023-10-19T00:19:19;99264.25;;;12.35;100.00
61506;BME280;47366;51.916;4.574;2023-10-19T00:21:45;99258.41;;;12.40;100.00
61506;BME280;47366;51.916;4.574;2023-10-19T00:24:19;99269.25;;;12.40;100.00
61506;BME280;47366;51.916;4.574;2023-10-19T00:26:47;99265.53;;;12.41;100.00
61506;BME280;47366;51.916;4.574;2023-10-19T00:29:13;99261.78;;;12.42;100.00
61506;BME280;47366;51.916;4.574;2023-10-19T00:31:58;99261.53;;;12.45;100.00
61506;BME280;47366;51.916;4.574;2023-10-19T00:34:24;99264.94;;;12.47;100.00
61506;BME280;47366;51.916;4.574;2023-10-19T00:36:50;99261.81;;;12.51;100.00
61506;BME280;47366;51.916;4.574;2023-10-19T00:39:16;99273.63;;;12.60;100.00
61506;BME280;47366;51.916;4.574;2023-10-19T00:41:47;99268.91;;;12.62;100.00
61506;BME280;47366;51.916;4.574;2023-10-19T00:44:13;99264.75;;;12.68;100.00
61506;BME280;47366;51.916;4.574;2023-10-19T00:46:42;99259.16;;;12.69;100.00
61506;BME280;47366;51.916;4.574;2023-10-19T00:49:08;99266.75;;;12.75;100.00
61506;BME280;47366;51.916;4.574;2023-10-19T00:51:40;99266.56;;;12.77;100.00
61506;BME280;47366;51.916;4.574;2023-10-19T00:54:27;99255.56;;;12.79;100.00
61506;BME280;47366;51.916;4.574;2023-10-19T00:56:59;99265.84;;;12.85;100.00
61506;BME280;47366;51.916;4.574;2023-10-19T00:59:31;99272.69;;;12.89;100.00
61506;BME280;47366;51.916;4.574;2023-10-19T01:02:01;99267.38;;;12.97;100.00
61506;BME280;47366;51.916;4.574;2023-10-19T01:04:46;99285.75;;;13.13;100.00
61506;BME280;47366;51.916;4.574;2023-10-19T01:07:17;99269.97;;;13.26;100.00
61506;BME280;47366;51.916;4.574;2023-10-19T01:09:53;99273.72;;;13.25;100.00
61506;BME280;47366;51.916;4.574;2023-10-19T01:12:24;99278.03;;;13.28;100.00
61506;BME280;47366;51.916;4.574;2023-10-19T01:17:32;99285.69;;;13.42;100.00
61506;BME280;47366;51.916;4.574;2023-10-19T01:20:00;99276.50;;;13.43;100.00
61506;BME280;47366;51.916;4.574;2023-10-19T01:22:26;99271.44;;;13.48;100.00
61506;BME280;47366;51.916;4.574;2023-10-19T01:24:52;99273.84;;;13.51;100.00
61506;BME280;47366;51.916;4.574;2023-10-19T01:27:19;99282.44;;;13.56;100.00
61506;BME280;47366;51.916;4.574;2023-10-19T01:29:45;99279.72;;;13.56;100.00
61506;BME280;47366;51.916;4.574;2023-10-19T01:32:11;99277.16;;;13.55;100.00
61506;BME280;47366;51.916;4.574;2023-10-19T01:34:40;99267.44;;;13.52;100.00
61506;BME280;47366;51.916;4.574;2023-10-19T01:37:05;99280.81;;;13.64;100.00
61506;BME280;47366;51.916;4.574;2023-10-19T01:39:32;99279.50;;;13.68;100.00
61506;BME280;47366;51.916;4.574;2023-10-19T01:42:00;99279.19;;;13.71;100.00
61506;BME280;47366;51.916;4.574;2023-10-19T01:44:25;99276.88;;;13.76;100.00
61506;BME280;47366;51.916;4.574;2023-10-19T01:46:51;99272.13;;;13.78;100.00
61506;BME280;47366;51.916;4.574;2023-10-19T01:49:16;99261.16;;;13.70;100.00
61506;BME280;47366;51.916;4.574;2023-10-19T01:51:51;99269.69;;;13.75;100.00
61506;BME280;47366;51.916;4.574;2023-10-19T01:54:17;99269.94;;;13.81;100.00
61506;BME280;47366;51.916;4.574;2023-10-19T01:56:47;99271.13;;;13.79;100.00
61506;BME280;47366;51.916;4.574;2023-10-19T01:59:15;99267.94;;;13.84;100.00
61506;BME280;47366;51.916;4.574;2023-10-19T02:01:41;99278.22;;;13.90;100.00
61506;BME280;47366;51.916;4.574;2023-10-19T02:04:10;99269.16;;;13.89;100.00
61506;BME280;47366;51.916;4.574;2023-10-19T02:06:38;99268.88;;;13.92;100.00
61506;BME280;47366;51.916;4.574;2023-10-19T02:09:09;99266.88;;;13.94;100.00
61506;BME280;47366;51.916;4.574;2023-10-19T02:11:41;99266.53;;;13.97;100.00
61506;BME280;47366;51.916;4.574;2023-10-19T02:14:08;99261.94;;;13.98;100.00
61506;BME280;47366;51.916;4.574;2023-10-19T02:16:49;99259.38;;;13.96;100.00
61506;BME280;47366;51.916;4.574;2023-10-19T02:19:18;99254.09;;;13.95;100.00
61506;BME280;47366;51.916;4.574;2023-10-19T02:21:47;99241.94;;;13.89;100.00
61506;BME280;47366;51.916;4.574;2023-10-19T02:24:13;99246.94;;;13.94;100.00
61506;BME280;47366;51.916;4.574;2023-10-19T02:26:40;99247.81;;;13.94;100.00
61506;BME280;47366;51.916;4.574;2023-10-19T02:29:06;99253.78;;;13.98;100.00
61506;BME280;47366;51.916;4.574;2023-10-19T02:31:39;99256.03;;;14.02;100.00
61506;BME280;47366;51.916;4.574;2023-10-19T02:34:06;99250.75;;;14.01;100.00
61506;BME280;47366;51.916;4.574;2023-10-19T02:36:33;99254.03;;;14.05;100.00
61506;BME280;47366;51.916;4.574;2023-10-19T02:39:03;99248.56;;;14.05;100.00
61506;BME280;47366;51.916;4.574;2023-10-19T02:41:40;99249.56;;;14.03;100.00
61506;BME280;47366;51.916;4.574;2023-10-19T02:44:23;99248.00;;;14.01;100.00
61506;BME280;47366;51.916;4.574;2023-10-19T02:46:49;99246.69;;;14.05;100.00
61506;BME280;47366;51.916;4.574;2023-10-19T02:49:20;99246.56;;;14.07;100.00
61506;BME280;47366;51.916;4.574;2023-10-19T02:51:47;99242.28;;;14.04;100.00
61506;BME280;47366;51.916;4.574;2023-10-19T02:54:15;99245.38;;;14.09;100.00
61506;BME280;47366;51.916;4.574;2023-10-19T02:56:59;99248.97;;;14.10;100.00
61506;BME280;47366;51.916;4.574;2023-10-19T02:59:26;99230.22;;;14.07;100.00
61506;BME280;47366;51.916;4.574;2023-10-19T03:01:58;99235.00;;;14.13;100.00
61506;BME280;47366;51.916;4.574;2023-10-19T03:04:36;99239.47;;;14.14;100.00
61506;BME280;47366;51.916;4.574;2023-10-19T03:07:05;99244.91;;;14.14;100.00
61506;BME280;47366;51.916;4.574;2023-10-19T03:09:32;99231.22;;;14.06;100.00
61506;BME280;47366;51.916;4.574;2023-10-19T03:12:01;99238.06;;;14.10;100.00
61506;BME280;47366;51.916;4.574;2023-10-19T03:14:34;99236.75;;;14.14;100.00
61506;BME280;47366;51.916;4.574;2023-10-19T03:16:59;99228.34;;;14.07;100.00
61506;BME280;47366;51.916;4.574;2023-10-19T03:19:26;99231.59;;;14.11;100.00
61506;BME280;47366;51.916;4.574;2023-10-19T03:21:52;99245.91;;;14.13;100.00
61506;BME280;47366;51.916;4.574;2023-10-19T03:24:18;99227.31;;;14.08;100.00
61506;BME280;47366;51.916;4.574;2023-10-19T03:27:06;99219.31;;;14.07;100.00
61506;BME280;47366;51.916;4.574;2023-10-19T03:29:46;99227.50;;;14.07;100.00
61506;BME280;47366;51.916;4.574;2023-10-19T03:32:13;99220.09;;;13.99;100.00
61506;BME280;47366;51.916;4.574;2023-10-19T03:34:39;99221.97;;;13.98;100.00
61506;BME280;47366;51.916;4.574;2023-10-19T03:37:08;99224.84;;;13.97;100.00
61506;BME280;47366;51.916;4.574;2023-10-19T03:39:39;99220.72;;;13.93;100.00
61506;BME280;47366;51.916;4.574;2023-10-19T03:42:05;99220.03;;;13.91;100.00
61506;BME280;47366;51.916;4.574;2023-10-19T03:44:32;99222.03;;;13.89;100.00
61506;BME280;47366;51.916;4.574;2023-10-19T03:47:17;99215.91;;;13.87;100.00
61506;BME280;47366;51.916;4.574;2023-10-19T03:49:50;99207.53;;;13.80;100.00
61506;BME280;47366;51.916;4.574;2023-10-19T03:52:15;99213.34;;;13.85;100.00
61506;BME280;47366;51.916;4.574;2023-10-19T03:54:41;99205.66;;;13.80;100.00
61506;BME280;47366;51.916;4.574;2023-10-19T03:57:11;99204.09;;;13.78;100.00
61506;BME280;47366;51.916;4.574;2023-10-19T03:59:41;99221.81;;;13.82;100.00
61506;BME280;47366;51.916;4.574;2023-10-19T04:02:10;99214.66;;;13.81;100.00
61506;BME280;47366;51.916;4.574;2023-10-19T04:04:41;99215.84;;;13.78;100.00
61506;BME280;47366;51.916;4.574;2023-10-19T04:07:12;99218.41;;;13.80;100.00
61506;BME280;47366;51.916;4.574;2023-10-19T04:09:51;99217.91;;;13.85;100.00
61506;BME280;47366;51.916;4.574;2023-10-19T04:12:35;99226.97;;;13.85;100.00
61506;BME280;47366;51.916;4.574;2023-10-19T04:15:06;99231.38;;;13.86;100.00
61506;BME280;47366;51.916;4.574;2023-10-19T04:17:38;99222.38;;;13.86;100.00
61506;BME280;47366;51.916;4.574;2023-10-19T04:20:05;99234.25;;;13.85;100.00
61506;BME280;47366;51.916;4.574;2023-10-19T04:22:47;99219.97;;;13.83;100.00
61506;BME280;47366;51.916;4.574;2023-10-19T04:25:14;99232.41;;;13.85;100.00
61506;BME280;47366;51.916;4.574;2023-10-19T04:27:42;99221.28;;;13.78;100.00
61506;BME280;47366;51.916;4.574;2023-10-19T04:30:12;99222.38;;;13.86;100.00
61506;BME280;47366;51.916;4.574;2023-10-19T04:32:45;99236.13;;;13.84;100.00
61506;BME280;47366;51.916;4.574;2023-10-19T04:35:12;99233.41;;;13.84;100.00
61506;BME280;47366;51.916;4.574;2023-10-19T04:37:49;99228.41;;;13.79;100.00
61506;BME280;47366;51.916;4.574;2023-10-19T04:40:15;99232.69;;;13.82;100.00
61506;BME280;47366;51.916;4.574;2023-10-19T04:42:41;99238.84;;;13.84;100.00
61506;BME280;47366;51.916;4.574;2023-10-19T04:45:07;99221.41;;;13.77;100.00
61506;BME280;47366;51.916;4.574;2023-10-19T04:47:33;99229.97;;;13.82;100.00
61506;BME280;47366;51.916;4.574;2023-10-19T04:50:02;99231.53;;;13.85;100.00
61506;BME280;47366;51.916;4.574;2023-10-19T04:52:31;99229.69;;;13.85;100.00
61506;BME280;47366;51.916;4.574;2023-10-19T04:54:58;99220.63;;;13.85;100.00
61506;BME280;47366;51.916;4.574;2023-10-19T04:57:23;99230.69;;;13.84;100.00
61506;BME280;47366;51.916;4.574;2023-10-19T04:59:49;99233.25;;;13.86;100.00
61506;BME280;47366;51.916;4.574;2023-10-19T05:02:15;99220.25;;;13.79;100.00
61506;BME280;47366;51.916;4.574;2023-10-19T05:04:40;99237.66;;;13.87;100.00
61506;BME280;47366;51.916;4.574;2023-10-19T05:07:06;99236.81;;;13.86;100.00
61506;BME280;47366;51.916;4.574;2023-10-19T05:09:34;99241.94;;;13.89;100.00
61506;BME280;47366;51.916;4.574;2023-10-19T05:12:03;99244.53;;;13.91;100.00
61506;BME280;47366;51.916;4.574;2023-10-19T05:14:29;99247.25;;;13.91;100.00
61506;BME280;47366;51.916;4.574;2023-10-19T05:16:55;99241.47;;;13.94;100.00
61506;BME280;47366;51.916;4.574;2023-10-19T05:19:20;99245.22;;;13.93;100.00
61506;BME280;47366;51.916;4.574;2023-10-19T05:21:46;99249.66;;;13.94;100.00
61506;BME280;47366;51.916;4.574;2023-10-19T05:24:11;99236.34;;;13.91;100.00
61506;BME280;47366;51.916;4.574;2023-10-19T05:26:37;99242.50;;;13.93;100.00
61506;BME280;47366;51.916;4.574;2023-10-19T05:29:02;99235.50;;;13.90;100.00
61506;BME280;47366;51.916;4.574;2023-10-19T05:31:27;99233.50;;;13.92;100.00
61506;BME280;47366;51.916;4.574;2023-10-19T05:33:53;99237.59;;;13.96;100.00
61506;BME280;47366;51.916;4.574;2023-10-19T05:36:19;99245.75;;;13.96;100.00
61506;BME280;47366;51.916;4.574;2023-10-19T05:38:44;99234.19;;;13.94;100.00
61506;BME280;47366;51.916;4.574;2023-10-19T05:41:10;99236.41;;;13.99;100.00
61506;BME280;47366;51.916;4.574;2023-10-19T05:43:37;99247.50;;;13.97;100.00
61506;BME280;47366;51.916;4.574;2023-10-19T05:46:03;99228.19;;;13.91;100.00
61506;BME280;47366;51.916;4.574;2023-10-19T05:48:28;99250.91;;;13.99;100.00
61506;BME280;47366;51.916;4.574;2023-10-19T05:50:53;99236.59;;;13.97;100.00
61506;BME280;47366;51.916;4.574;2023-10-19T05:53:19;99233.69;;;13.99;100.00
61506;BME280;47366;51.916;4.574;2023-10-19T05:55:47;99238.28;;;13.98;100.00
61506;BME280;47366;51.916;4.574;2023-10-19T05:58:13;99228.44;;;13.97;100.00
61506;BME280;47366;51.916;4.574;2023-10-19T06:00:38;99230.13;;;13.98;100.00
61506;BME280;47366;51.916;4.574;2023-10-19T06:03:04;99236.13;;;14.02;100.00
61506;BME280;47366;51.916;4.574;2023-10-19T06:05:30;99252.28;;;14.03;100.00
61506;BME280;47366;51.916;4.574;2023-10-19T06:07:55;99247.72;;;14.04;100.00
61506;BME280;47366;51.916;4.574;2023-10-19T06:10:21;99249.28;;;14.07;100.00
61506;BME280;47366;51.916;4.574;2023-10-19T06:12:49;99254.53;;;14.08;100.00
61506;BME280;47366;51.916;4.574;2023-10-19T06:15:21;99259.16;;;14.08;100.00
61506;BME280;47366;51.916;4.574;2023-10-19T06:17:49;99259.16;;;14.08;100.00
61506;BME280;47366;51.916;4.574;2023-10-19T06:20:14;99257.13;;;14.10;100.00
61506;BME280;47366;51.916;4.574;2023-10-19T06:22:57;99259.47;;;14.05;100.00
61506;BME280;47366;51.916;4.574;2023-10-19T06:25:29;99266.00;;;14.12;100.00
61506;BME280;47366;51.916;4.574;2023-10-19T06:27:55;99257.97;;;14.10;100.00
61506;BME280;47366;51.916;4.574;2023-10-19T06:30:22;99259.84;;;14.10;100.00
61506;BME280;47366;51.916;4.574;2023-10-19T06:32:53;99270.28;;;14.14;100.00
61506;BME280;47366;51.916;4.574;2023-10-19T06:35:19;99269.41;;;14.14;100.00
61506;BME280;47366;51.916;4.574;2023-10-19T06:37:45;99279.16;;;14.16;100.00
61506;BME280;47366;51.916;4.574;2023-10-19T06:40:12;99267.94;;;14.19;100.00
61506;BME280;47366;51.916;4.574;2023-10-19T06:42:41;99276.94;;;14.20;100.00
61506;BME280;47366;51.916;4.574;2023-10-19T06:45:06;99275.25;;;14.19;100.00
61506;BME280;47366;51.916;4.574;2023-10-19T06:47:33;99268.06;;;14.18;100.00
61506;BME280;47366;51.916;4.574;2023-10-19T06:50:05;99274.94;;;14.22;100.00
61506;BME280;47366;51.916;4.574;2023-10-19T06:52:34;99265.34;;;14.18;100.00
61506;BME280;47366;51.916;4.574;2023-10-19T06:55:02;99268.63;;;14.21;100.00
61506;BME280;47366;51.916;4.574;2023-10-19T06:57:28;99278.22;;;14.26;100.00
61506;BME280;47366;51.916;4.574;2023-10-19T06:59:53;99271.88;;;14.25;100.00
61506;BME280;47366;51.916;4.574;2023-10-19T07:02:18;99270.88;;;14.26;100.00
61506;BME280;47366;51.916;4.574;2023-10-19T07:04:46;99282.16;;;14.31;100.00
61506;BME280;47366;51.916;4.574;2023-10-19T07:07:12;99282.47;;;14.28;100.00
61506;BME280;47366;51.916;4.574;2023-10-19T07:09:38;99290.19;;;14.33;100.00
61506;BME280;47366;51.916;4.574;2023-10-19T07:12:04;99276.16;;;14.28;100.00
61506;BME280;47366;51.916;4.574;2023-10-19T07:14:32;99288.63;;;14.30;100.00
61506;BME280;47366;51.916;4.574;2023-10-19T07:16:58;99291.88;;;14.34;100.00
61506;BME280;47366;51.916;4.574;2023-10-19T07:19:23;99288.31;;;14.33;100.00
61506;BME280;47366;51.916;4.574;2023-10-19T07:21:48;99291.56;;;14.37;100.00
61506;BME280;47366;51.916;4.574;2023-10-19T07:24:16;99293.13;;;14.39;100.00
61506;BME280;47366;51.916;4.574;2023-10-19T07:26:44;99288.84;;;14.37;100.00
61506;BME280;47366;51.916;4.574;2023-10-19T07:29:19;99291.25;;;14.40;100.00
61506;BME280;47366;51.916;4.574;2023-10-19T07:31:45;99288.53;;;14.40;100.00
61506;BME280;47366;51.916;4.574;2023-10-19T07:34:10;99289.72;;;14.37;100.00
61506;BME280;47366;51.916;4.574;2023-10-19T07:36:40;99289.53;;;14.39;100.00
61506;BME280;47366;51.916;4.574;2023-10-19T07:39:08;99294.38;;;14.45;100.00
61506;BME280;47366;51.916;4.574;2023-10-19T07:41:40;99290.09;;;14.42;100.00
61506;BME280;47366;51.916;4.574;2023-10-19T07:44:05;99288.69;;;14.38;100.00
61506;BME280;47366;51.916;4.574;2023-10-19T07:46:30;99305.41;;;14.43;100.00
61506;BME280;47366;51.916;4.574;2023-10-19T07:48:57;99302.69;;;14.43;100.00
61506;BME280;47366;51.916;4.574;2023-10-19T07:51:24;99301.69;;;14.44;100.00
61506;BME280;47366;51.916;4.574;2023-10-19T07:53:50;99300.16;;;14.42;100.00
61506;BME280;47366;51.916;4.574;2023-10-19T07:56:16;99297.09;;;14.45;100.00
61506;BME280;47366;51.916;4.574;2023-10-19T07:58:42;99295.91;;;14.48;100.00
61506;BME280;47366;51.916;4.574;2023-10-19T08:01:07;99301.22;;;14.49;100.00
61506;BME280;47366;51.916;4.574;2023-10-19T08:03:33;99289.44;;;14.49;100.00
61506;BME280;47366;51.916;4.574;2023-10-19T08:05:58;99292.56;;;14.54;100.00
61506;BME280;47366;51.916;4.574;2023-10-19T08:08:23;99298.31;;;14.51;100.00
61506;BME280;47366;51.916;4.574;2023-10-19T08:10:50;99292.44;;;14.55;100.00
61506;BME280;47366;51.916;4.574;2023-10-19T08:13:15;99279.94;;;14.53;100.00
61506;BME280;47366;51.916;4.574;2023-10-19T08:15:40;99282.09;;;14.59;100.00
61506;BME280;47366;51.916;4.574;2023-10-19T08:18:06;99278.34;;;14.60;100.00
61506;BME280;47366;51.916;4.574;2023-10-19T08:20:31;99270.72;;;14.63;100.00
61506;BME280;47366;51.916;4.574;2023-10-19T08:22:57;99279.06;;;14.70;100.00
61506;BME280;47366;51.916;4.574;2023-10-19T08:25:23;99276.91;;;14.74;100.00
61506;BME280;47366;51.916;4.574;2023-10-19T08:27:54;99279.66;;;14.82;100.00
61506;BME280;47366;51.916;4.574;2023-10-19T08:30:22;99267.28;;;14.88;100.00
61506;BME280;47366;51.916;4.574;2023-10-19T08:32:48;99269.41;;;15.02;100.00
61506;BME280;47366;51.916;4.574;2023-10-19T08:35:20;99275.94;;;15.17;100.00
61506;BME280;47366;51.916;4.574;2023-10-19T08:37:49;99276.38;;;15.31;100.00
61506;BME280;47366;51.916;4.574;2023-10-19T08:40:15;99265.81;;;15.36;100.00
61506;BME280;47366;51.916;4.574;2023-10-19T08:42:42;99271.13;;;15.45;100.00
61506;BME280;47366;51.916;4.574;2023-10-19T08:45:09;99275.44;;;15.56;100.00
61506;BME280;47366;51.916;4.574;2023-10-19T08:47:40;99267.94;;;15.58;100.00
61506;BME280;47366;51.916;4.574;2023-10-19T08:50:07;99274.44;;;15.65;100.00
61506;BME280;47366;51.916;4.574;2023-10-19T08:52:33;99271.88;;;15.64;100.00
61506;BME280;47366;51.916;4.574;2023-10-19T08:55:00;99274.16;;;15.77;100.00
61506;BME280;47366;51.916;4.574;2023-10-19T08:57:26;99259.16;;;15.81;100.00
61506;BME280;47366;51.916;4.574;2023-10-19T08:59:52;99274.06;;;15.95;100.00
61506;BME280;47366;51.916;4.574;2023-10-19T09:02:17;99266.72;;;15.95;100.00
61506;BME280;47366;51.916;4.574;2023-10-19T09:04:43;99259.84;;;15.91;100.00
61506;BME280;47366;51.916;4.574;2023-10-19T09:07:09;99258.84;;;16.00;100.00
61506;BME280;47366;51.916;4.574;2023-10-19T09:09:36;99251.84;;;15.98;100.00
61506;BME280;47366;51.916;4.574;2023-10-19T09:12:08;99262.28;;;16.02;100.00
61506;BME280;47366;51.916;4.574;2023-10-19T09:14:35;99258.84;;;16.00;100.00
61506;BME280;47366;51.916;4.574;2023-10-19T09:17:02;99244.16;;;16.01;100.00
61506;BME280;47366;51.916;4.574;2023-10-19T09:19:43;99251.88;;;16.14;100.00
61506;BME280;47366;51.916;4.574;2023-10-19T09:22:09;99260.91;;;16.14;100.00
61506;BME280;47366;51.916;4.574;2023-10-19T09:24:45;99243.69;;;16.14;100.00
61506;BME280;47366;51.916;4.574;2023-10-19T09:27:11;99240.59;;;16.17;100.00
61506;BME280;47366;51.916;4.574;2023-10-19T09:29:37;99235.28;;;16.16;100.00
61506;BME280;47366;51.916;4.574;2023-10-19T09:32:03;99244.72;;;16.21;100.00
61506;BME280;47366;51.916;4.574;2023-10-19T09:34:30;99234.28;;;16.41;100.00
61506;BME280;47366;51.916;4.574;2023-10-19T09:37:02;99231.38;;;16.59;99.78
61506;BME280;47366;51.916;4.574;2023-10-19T09:39:32;99232.56;;;16.56;99.33
61506;BME280;47366;51.916;4.574;2023-10-19T09:42:07;99232.22;;;16.60;99.57
61506;BME280;47366;51.916;4.574;2023-10-19T09:44:41;99222.97;;;16.69;99.37
61506;BME280;47366;51.916;4.574;2023-10-19T09:47:11;99226.72;;;16.84;98.67
61506;BME280;47366;51.916;4.574;2023-10-19T09:49:39;99230.09;;;16.94;97.81
61506;BME280;47366;51.916;4.574;2023-10-19T09:52:06;99228.41;;;16.93;97.65
61506;BME280;47366;51.916;4.574;2023-10-19T09:57:21;99228.53;;;17.08;97.58
61506;BME280;47366;51.916;4.574;2023-10-19T09:59:53;99227.50;;;17.09;96.87
61506;BME280;47366;51.916;4.574;2023-10-19T10:02:22;99222.91;;;17.02;96.72
61506;BME280;47366;51.916;4.574;2023-10-19T10:04:48;99229.56;;;16.99;97.13
61506;BME280;47366;51.916;4.574;2023-10-19T10:07:14;99220.03;;;16.95;97.26
61506;BME280;47366;51.916;4.574;2023-10-19T10:09:42;99214.00;;;17.08;96.88
61506;BME280;47366;51.916;4.574;2023-10-19T10:12:18;99208.69;;;17.14;96.25
61506;BME280;47366;51.916;4.574;2023-10-19T10:15:03;99216.81;;;17.31;95.31
61506;BME280;47366;51.916;4.574;2023-10-19T10:17:33;99212.03;;;17.33;94.73
61506;BME280;47366;51.916;4.574;2023-10-19T10:22:36;99210.97;;;17.34;94.77
61506;BME280;47366;51.916;4.574;2023-10-19T10:25:02;99217.91;;;17.45;94.23
61506;BME280;47366;51.916;4.574;2023-10-19T10:27:27;99221.84;;;17.50;93.98
61506;BME280;47366;51.916;4.574;2023-10-19T10:29:59;99214.00;;;17.47;93.82
61506;BME280;47366;51.916;4.574;2023-10-19T10:35:08;99218.72;;;17.61;93.54
61506;BME280;47366;51.916;4.574;2023-10-19T10:37:36;99216.75;;;17.47;93.62
61506;BME280;47366;51.916;4.574;2023-10-19T10:40:02;99199.50;;;17.30;93.58
61506;BME280;47366;51.916;4.574;2023-10-19T10:42:31;99217.28;;;17.34;94.45
61506;BME280;47366;51.916;4.574;2023-10-19T10:44:56;99216.13;;;17.29;94.25
61506;BME280;47366;51.916;4.574;2023-10-19T10:47:22;99220.09;;;17.26;94.47
61506;BME280;47366;51.916;4.574;2023-10-19T10:49:55;99224.72;;;17.26;94.70
61506;BME280;47366;51.916;4.574;2023-10-19T10:52:31;99218.72;;;17.22;94.48
61506;BME280;47366;51.916;4.574;2023-10-19T10:55:11;99219.56;;;17.23;95.08
61506;BME280;47366;51.916;4.574;2023-10-19T10:57:38;99220.78;;;17.20;94.72
61506;BME280;47366;51.916;4.574;2023-10-19T11:00:11;99214.09;;;17.23;95.35
61506;BME280;47366;51.916;4.574;2023-10-19T11:02:59;99224.50;;;17.27;94.99
61506;BME280;47366;51.916;4.574;2023-10-19T11:05:25;99216.31;;;17.27;95.24
61506;BME280;47366;51.916;4.574;2023-10-19T11:08:08;99210.97;;;17.34;95.04
61506;BME280;47366;51.916;4.574;2023-10-19T11:10:42;99203.31;;;17.29;94.85
61506;BME280;47366;51.916;4.574;2023-10-19T11:13:09;99196.47;;;17.25;95.01
61506;BME280;47366;51.916;4.574;2023-10-19T11:15:37;99205.19;;;17.29;95.41
61506;BME280;47366;51.916;4.574;2023-10-19T11:18:03;99190.31;;;17.23;95.15
61506;BME280;47366;51.916;4.574;2023-10-19T11:20:29;99187.94;;;17.28;95.04
61506;BME280;47366;51.916;4.574;2023-10-19T11:22:56;99184.16;;;17.29;94.86
61506;BME280;47366;51.916;4.574;2023-10-19T11:25:24;99165.53;;;17.25;94.85
61506;BME280;47366;51.916;4.574;2023-10-19T11:27:51;99175.22;;;17.35;94.89
61506;BME280;47366;51.916;4.574;2023-10-19T11:32:50;99174.50;;;17.41;94.20
61506;BME280;47366;51.916;4.574;2023-10-19T11:35:23;99178.06;;;17.42;94.07
61506;BME280;47366;51.916;4.574;2023-10-19T11:37:49;99173.47;;;17.43;94.45
61506;BME280;47366;51.916;4.574;2023-10-19T11:40:15;99169.69;;;17.44;94.59
61506;BME280;47366;51.916;4.574;2023-10-19T11:42:42;99177.75;;;17.45;94.04
61506;BME280;47366;51.916;4.574;2023-10-19T11:45:08;99167.81;;;17.44;94.16
61506;BME280;47366;51.916;4.574;2023-10-19T11:47:33;99162.69;;;17.41;93.87
61506;BME280;47366;51.916;4.574;2023-10-19T11:50:00;99166.47;;;17.40;94.57
61506;BME280;47366;51.916;4.574;2023-10-19T11:52:25;99161.34;;;17.37;94.07
61506;BME280;47366;51.916;4.574;2023-10-19T11:54:50;99160.19;;;17.31;93.32
61506;BME280;47366;51.916;4.574;2023-10-19T11:57:16;99160.91;;;17.25;93.76
61506;BME280;47366;51.916;4.574;2023-10-19T11:59:41;99156.63;;;17.23;93.72
61506;BME280;47366;51.916;4.574;2023-10-19T12:02:06;99151.84;;;17.25;93.62
61506;BME280;47366;51.916;4.574;2023-10-19T12:04:32;99146.19;;;17.26;94.27
61506;BME280;47366;51.916;4.574;2023-10-19T12:07:01;99148.78;;;17.19;94.54
61506;BME280;47366;51.916;4.574;2023-10-19T12:09:26;99153.22;;;17.20;94.55
61506;BME280;47366;51.916;4.574;2023-10-19T12:11:53;99149.63;;;17.20;95.08
61506;BME280;47366;51.916;4.574;2023-10-19T12:14:19;99144.91;;;17.14;94.93
61506;BME280;47366;51.916;4.574;2023-10-19T12:16:46;99136.84;;;17.12;94.78
61506;BME280;47366;51.916;4.574;2023-10-19T12:19:12;99135.81;;;17.13;94.96
61506;BME280;47366;51.916;4.574;2023-10-19T12:21:39;99127.13;;;17.10;95.22
61506;BME280;47366;51.916;4.574;2023-10-19T12:24:07;99120.97;;;17.08;95.28
61506;BME280;47366;51.916;4.574;2023-10-19T12:26:33;99130.88;;;17.09;95.51
61506;BME280;47366;51.916;4.574;2023-10-19T12:28:58;99124.75;;;17.07;95.27
61506;BME280;47366;51.916;4.574;2023-10-19T12:31:24;99123.03;;;17.06;95.41
61506;BME280;47366;51.916;4.574;2023-10-19T12:33:50;99126.63;;;17.06;95.39
61506;BME280;47366;51.916;4.574;2023-10-19T12:36:16;99135.88;;;17.05;95.85
61506;BME280;47366;51.916;4.574;2023-10-19T12:38:53;99127.34;;;17.00;95.63
61506;BME280;47366;51.916;4.574;2023-10-19T12:41:20;99131.78;;;17.01;95.78
61506;BME280;47366;51.916;4.574;2023-10-19T12:43:50;99128.03;;;17.02;96.32
61506;BME280;47366;51.916;4.574;2023-10-19T12:46:23;99117.25;;;17.01;96.00
61506;BME280;47366;51.916;4.574;2023-10-19T12:48:50;99116.56;;;16.98;96.50
61506;BME280;47366;51.916;4.574;2023-10-19T12:51:16;99109.56;;;16.96;96.85
61506;BME280;47366;51.916;4.574;2023-10-19T12:53:48;99099.69;;;16.95;96.69
61506;BME280;47366;51.916;4.574;2023-10-19T12:56:13;99104.28;;;16.94;96.63
61506;BME280;47366;51.916;4.574;2023-10-19T12:58:39;99099.84;;;16.93;96.81
61506;BME280;47366;51.916;4.574;2023-10-19T13:01:04;99104.09;;;16.96;97.71
61506;BME280;47366;51.916;4.574;2023-10-19T13:03:30;99110.78;;;16.93;97.21
61506;BME280;47366;51.916;4.574;2023-10-19T13:05:58;99116.56;;;16.98;97.13
61506;BME280;47366;51.916;4.574;2023-10-19T13:08:23;99101.91;;;16.91;97.04
61506;BME280;47366;51.916;4.574;2023-10-19T13:10:52;99103.97;;;16.89;97.63
61506;BME280;47366;51.916;4.574;2023-10-19T13:13:18;99103.13;;;16.89;97.69